Strona główna
METAR-TAF:

METAR-TAF

Lotnisko :

Port lotniczy Lille-Lesquin

Lille, Francja

Szerokość geograficzna: 50-34N, Długość geograficzna: 003-06E, wysokość: 48 m

Aktualna obserwacja pogody

Raport powstał 11 minut temu, godzina 08:00 UTC
Wiatr 14 kt od północny wschód
Temperatura 15°C
Wilgotność 55%
Ciśnienie 1033 hPa
Widzialność 10 km lub więcej
Brak chmur poniżej 1500 m i brak chmur cumulonimbus

METAR: LFQQ 280800Z AUTO 05014KT CAVOK 15/06 Q1033 NOSIG

czas: 10:11 (08:11 UTC)

Prognoza

Raport powstał 3 godziny i 11 minut temu, godzina 05:00 UTC
Prognoza ważna od 28 godzina 06 UTC do 29 godzina 12 UTC
Wiatr 12 kt od północny wschód
Widzialność 10 km lub więcej
Brak chmur poniżej 1500 m i brak chmur cumulonimbus

TAF: LFQQ 280500Z 2806/2912 05012KT CAVOK

Obserwacja i prognoza pogody dla ponad 4000 lotnisk (raport METAR i TAF).

Dostępne stacje oznaczono żółtymi i czerwonymi punktami na mapie.

Najedź kursorem aby zobaczyć nazwę stacji.

Kliknij aby zobaczyć obserwacje i prognozy pogody.

Aby zmienić mapę: kliknij na zielony przycisk z czarnym krzyżykiem, aby powiększyć; na zielony przycisk z myślnikiem, aby pomniejszyć; na zielone strzałki, aby przejść do map sąsiednich.


METAR-TAF: